sensor_id;sensor_type;location;lat;lon;timestamp;P1;durP1;ratioP1;P2;durP2;ratioP2
34453;SDS011;60061;52.080;5.312;2022-09-02T00:01:10;1.8;;;1.11;;
34453;SDS011;60061;52.080;5.312;2022-09-02T00:04:27;1.7;;;1.11;;
34453;SDS011;60061;52.080;5.312;2022-09-02T00:06:03;2.5;;;1.0;;
34453;SDS011;60061;52.080;5.312;2022-09-02T00:07:40;2.4;;;1.3;;
34453;SDS011;60061;52.080;5.312;2022-09-02T00:10:57;2.6;;;1.11;;
34453;SDS011;60061;52.080;5.312;2022-09-02T00:12:35;1.2;;;1.0;;
34453;SDS011;60061;52.080;5.312;2022-09-02T00:14:11;2.21;;;1.3;;
34453;SDS011;60061;52.080;5.312;2022-09-02T00:15:53;2.5;;;1.11;;
34453;SDS011;60061;52.080;5.312;2022-09-02T00:19:06;2.6;;;1.2;;
34453;SDS011;60061;52.080;5.312;2022-09-02T00:20:44;1.8;;;1.2;;
34453;SDS011;60061;52.080;5.312;2022-09-02T00:22:23;2.0;;;1.2;;
34453;SDS011;60061;52.080;5.312;2022-09-02T00:23:59;1.2;;;1.11;;
34453;SDS011;60061;52.080;5.312;2022-09-02T00:27:15;3.5;;;1.2;;
34453;SDS011;60061;52.080;5.312;2022-09-02T00:28:51;1.11;;;1.0;;
34453;SDS011;60061;52.080;5.312;2022-09-02T00:30:28;3.6;;;1.11;;
34453;SDS011;60061;52.080;5.312;2022-09-02T00:33:41;1.7;;;1.11;;
34453;SDS011;60061;52.080;5.312;2022-09-02T00:35:18;3.6;;;1.11;;
34453;SDS011;60061;52.080;5.312;2022-09-02T00:36:53;1.5;;;1.11;;
34453;SDS011;60061;52.080;5.312;2022-09-02T00:40:10;2.4;;;1.11;;
34453;SDS011;60061;52.080;5.312;2022-09-02T00:41:48;2.0;;;1.11;;
34453;SDS011;60061;52.080;5.312;2022-09-02T00:43:37;2.1;;;1.2;;
34453;SDS011;60061;52.080;5.312;2022-09-02T00:45:18;2.5;;;1.3;;
34453;SDS011;60061;52.080;5.312;2022-09-02T00:48:33;2.7;;;1.4;;
34453;SDS011;60061;52.080;5.312;2022-09-02T00:50:14;1.5;;;1.2;;
34453;SDS011;60061;52.080;5.312;2022-09-02T00:51:56;3.3;;;1.2;;
34453;SDS011;60061;52.080;5.312;2022-09-02T00:53:39;2.0;;;1.2;;
34453;SDS011;60061;52.080;5.312;2022-09-02T00:56:57;2.0;;;1.2;;
34453;SDS011;60061;52.080;5.312;2022-09-02T00:58:38;2.0;;;1.2;;
34453;SDS011;60061;52.080;5.312;2022-09-02T01:00:18;1.7;;;1.11;;
34453;SDS011;60061;52.080;5.312;2022-09-02T01:01:57;2.9;;;1.2;;
34453;SDS011;60061;52.080;5.312;2022-09-02T01:05:10;3.6;;;1.2;;
34453;SDS011;60061;52.080;5.312;2022-09-02T01:06:51;2.4;;;1.3;;
34453;SDS011;60061;52.080;5.312;2022-09-02T01:08:31;2.21;;;1.0;;
34453;SDS011;60061;52.080;5.312;2022-09-02T01:10:10;1.7;;;1.11;;
34453;SDS011;60061;52.080;5.312;2022-09-02T01:13:34;2.0;;;1.0;;
34453;SDS011;60061;52.080;5.312;2022-09-02T01:15:14;3.4;;;1.3;;
34453;SDS011;60061;52.080;5.312;2022-09-02T01:16:51;3.5;;;1.4;;
34453;SDS011;60061;52.080;5.312;2022-09-02T01:18:30;2.9;;;1.0;;
34453;SDS011;60061;52.080;5.312;2022-09-02T01:21:54;2.4;;;1.2;;
34453;SDS011;60061;52.080;5.312;2022-09-02T01:23:32;2.31;;;1.3;;
34453;SDS011;60061;52.080;5.312;2022-09-02T01:25:13;1.8;;;1.11;;
34453;SDS011;60061;52.080;5.312;2022-09-02T01:26:53;2.7;;;1.11;;
34453;SDS011;60061;52.080;5.312;2022-09-02T01:30:11;2.0;;;1.11;;
34453;SDS011;60061;52.080;5.312;2022-09-02T01:31:51;1.5;;;1.2;;
34453;SDS011;60061;52.080;5.312;2022-09-02T01:33:28;2.4;;;1.2;;
34453;SDS011;60061;52.080;5.312;2022-09-02T01:36:43;1.7;;;1.2;;
34453;SDS011;60061;52.080;5.312;2022-09-02T01:38:20;3.0;;;1.3;;
34453;SDS011;60061;52.080;5.312;2022-09-02T01:39:59;2.1;;;1.3;;
34453;SDS011;60061;52.080;5.312;2022-09-02T01:41:35;1.9;;;1.2;;
34453;SDS011;60061;52.080;5.312;2022-09-02T01:44:53;2.6;;;1.2;;
34453;SDS011;60061;52.080;5.312;2022-09-02T01:46:29;1.7;;;1.3;;
34453;SDS011;60061;52.080;5.312;2022-09-02T01:48:05;2.5;;;1.3;;
34453;SDS011;60061;52.080;5.312;2022-09-02T01:51:20;1.6;;;1.2;;
34453;SDS011;60061;52.080;5.312;2022-09-02T01:52:57;1.2;;;1.11;;
34453;SDS011;60061;52.080;5.312;2022-09-02T01:54:34;2.9;;;1.3;;
34453;SDS011;60061;52.080;5.312;2022-09-02T01:56:11;1.9;;;1.3;;
34453;SDS011;60061;52.080;5.312;2022-09-02T01:59:24;2.4;;;1.4;;
34453;SDS011;60061;52.080;5.312;2022-09-02T02:01:02;2.9;;;1.3;;
34453;SDS011;60061;52.080;5.312;2022-09-02T02:02:38;2.9;;;1.3;;
34453;SDS011;60061;52.080;5.312;2022-09-02T02:05:52;1.4;;;1.3;;
34453;SDS011;60061;52.080;5.312;2022-09-02T02:07:28;1.8;;;1.2;;
34453;SDS011;60061;52.080;5.312;2022-09-02T02:09:04;1.5;;;1.2;;
34453;SDS011;60061;52.080;5.312;2022-09-02T02:10:41;2.5;;;1.6;;
34453;SDS011;60061;52.080;5.312;2022-09-02T02:13:56;2.5;;;1.11;;
34453;SDS011;60061;52.080;5.312;2022-09-02T02:15:32;2.6;;;1.4;;
34453;SDS011;60061;52.080;5.312;2022-09-02T02:17:11;2.6;;;1.4;;
34453;SDS011;60061;52.080;5.312;2022-09-02T02:20:26;2.21;;;1.4;;
34453;SDS011;60061;52.080;5.312;2022-09-02T02:22:02;4.8;;;1.4;;
34453;SDS011;60061;52.080;5.312;2022-09-02T02:23:38;2.9;;;1.3;;
34453;SDS011;60061;52.080;5.312;2022-09-02T02:26:53;3.6;;;1.4;;
34453;SDS011;60061;52.080;5.312;2022-09-02T02:28:30;3.7;;;1.6;;
34453;SDS011;60061;52.080;5.312;2022-09-02T02:30:07;2.0;;;1.4;;
34453;SDS011;60061;52.080;5.312;2022-09-02T02:31:45;2.5;;;1.4;;
34453;SDS011;60061;52.080;5.312;2022-09-02T02:34:59;2.5;;;1.4;;
34453;SDS011;60061;52.080;5.312;2022-09-02T02:36:36;2.31;;;1.3;;
34453;SDS011;60061;52.080;5.312;2022-09-02T02:38:13;2.6;;;1.3;;
34453;SDS011;60061;52.080;5.312;2022-09-02T02:41:25;1.4;;;1.11;;
34453;SDS011;60061;52.080;5.312;2022-09-02T02:43:02;1.8;;;1.4;;
34453;SDS011;60061;52.080;5.312;2022-09-02T02:44:39;1.8;;;1.4;;
34453;SDS011;60061;52.080;5.312;2022-09-02T02:46:18;1.11;;;1.0;;
34453;SDS011;60061;52.080;5.312;2022-09-02T02:49:34;2.6;;;1.2;;
34453;SDS011;60061;52.080;5.312;2022-09-02T02:51:12;3.0;;;1.6;;
34453;SDS011;60061;52.080;5.312;2022-09-02T02:52:48;1.7;;;1.4;;
34453;SDS011;60061;52.080;5.312;2022-09-02T02:56:05;1.5;;;1.4;;
34453;SDS011;60061;52.080;5.312;2022-09-02T02:57:43;3.3;;;1.3;;
34453;SDS011;60061;52.080;5.312;2022-09-02T02:59:21;2.7;;;1.5;;
34453;SDS011;60061;52.080;5.312;2022-09-02T03:00:59;1.9;;;1.4;;
34453;SDS011;60061;52.080;5.312;2022-09-02T03:04:12;2.5;;;1.2;;
34453;SDS011;60061;52.080;5.312;2022-09-02T03:05:48;1.3;;;1.11;;
34453;SDS011;60061;52.080;5.312;2022-09-02T03:07:25;2.4;;;1.3;;
34453;SDS011;60061;52.080;5.312;2022-09-02T03:10:41;2.6;;;1.6;;
34453;SDS011;60061;52.080;5.312;2022-09-02T03:12:18;3.2;;;1.3;;
34453;SDS011;60061;52.080;5.312;2022-09-02T03:13:54;4.0;;;1.6;;
34453;SDS011;60061;52.080;5.312;2022-09-02T03:15:31;3.5;;;1.3;;
34453;SDS011;60061;52.080;5.312;2022-09-02T03:18:45;2.21;;;1.3;;
34453;SDS011;60061;52.080;5.312;2022-09-02T03:20:22;1.8;;;1.3;;
34453;SDS011;60061;52.080;5.312;2022-09-02T03:21:59;2.31;;;1.3;;
34453;SDS011;60061;52.080;5.312;2022-09-02T03:25:11;2.4;;;1.4;;
34453;SDS011;60061;52.080;5.312;2022-09-02T03:26:50;2.5;;;1.2;;
34453;SDS011;60061;52.080;5.312;2022-09-02T03:28:26;2.21;;;1.3;;
34453;SDS011;60061;52.080;5.312;2022-09-02T03:31:41;2.31;;;1.2;;
34453;SDS011;60061;52.080;5.312;2022-09-02T03:33:19;1.8;;;1.3;;
34453;SDS011;60061;52.080;5.312;2022-09-02T03:34:55;1.3;;;1.2;;
34453;SDS011;60061;52.080;5.312;2022-09-02T03:36:32;2.6;;;1.3;;
34453;SDS011;60061;52.080;5.312;2022-09-02T03:39:48;2.7;;;1.4;;
34453;SDS011;60061;52.080;5.312;2022-09-02T03:41:24;3.5;;;1.3;;
34453;SDS011;60061;52.080;5.312;2022-09-02T03:43:01;2.21;;;1.3;;
34453;SDS011;60061;52.080;5.312;2022-09-02T03:46:15;2.4;;;1.4;;
34453;SDS011;60061;52.080;5.312;2022-09-02T03:47:53;2.7;;;1.5;;
34453;SDS011;60061;52.080;5.312;2022-09-02T03:49:30;2.5;;;1.4;;
34453;SDS011;60061;52.080;5.312;2022-09-02T03:51:07;2.0;;;1.3;;
34453;SDS011;60061;52.080;5.312;2022-09-02T03:54:21;2.6;;;1.5;;
34453;SDS011;60061;52.080;5.312;2022-09-02T03:55:58;2.31;;;1.3;;
34453;SDS011;60061;52.080;5.312;2022-09-02T03:57:40;5.5;;;1.5;;
34453;SDS011;60061;52.080;5.312;2022-09-02T04:00:54;1.8;;;1.2;;
34453;SDS011;60061;52.080;5.312;2022-09-02T04:02:31;1.4;;;1.3;;
34453;SDS011;60061;52.080;5.312;2022-09-02T04:04:07;4.5;;;1.5;;
34453;SDS011;60061;52.080;5.312;2022-09-02T04:05:44;1.9;;;1.11;;
34453;SDS011;60061;52.080;5.312;2022-09-02T04:08:57;1.8;;;1.4;;
34453;SDS011;60061;52.080;5.312;2022-09-02T04:10:33;4.1;;;1.3;;
34453;SDS011;60061;52.080;5.312;2022-09-02T04:12:11;2.7;;;1.2;;
34453;SDS011;60061;52.080;5.312;2022-09-02T04:15:27;3.4;;;1.3;;
34453;SDS011;60061;52.080;5.312;2022-09-02T04:17:03;1.7;;;1.3;;
34453;SDS011;60061;52.080;5.312;2022-09-02T04:18:39;3.6;;;1.3;;
34453;SDS011;60061;52.080;5.312;2022-09-02T04:21:52;2.8;;;1.3;;
34453;SDS011;60061;52.080;5.312;2022-09-02T04:23:28;2.31;;;1.4;;
34453;SDS011;60061;52.080;5.312;2022-09-02T04:25:06;4.2;;;1.4;;
34453;SDS011;60061;52.080;5.312;2022-09-02T04:26:44;4.3;;;1.4;;
34453;SDS011;60061;52.080;5.312;2022-09-02T04:29:58;3.4;;;1.5;;
34453;SDS011;60061;52.080;5.312;2022-09-02T04:31:34;3.7;;;1.4;;
34453;SDS011;60061;52.080;5.312;2022-09-02T04:33:11;1.9;;;1.3;;
34453;SDS011;60061;52.080;5.312;2022-09-02T04:36:24;2.5;;;1.3;;
34453;SDS011;60061;52.080;5.312;2022-09-02T04:38:03;3.8;;;1.4;;
34453;SDS011;60061;52.080;5.312;2022-09-02T04:39:39;4.61;;;1.2;;
34453;SDS011;60061;52.080;5.312;2022-09-02T04:42:58;2.4;;;1.4;;
34453;SDS011;60061;52.080;5.312;2022-09-02T04:44:34;1.6;;;1.2;;
34453;SDS011;60061;52.080;5.312;2022-09-02T04:46:11;1.7;;;1.3;;
34453;SDS011;60061;52.080;5.312;2022-09-02T04:47:50;4.3;;;1.3;;
34453;SDS011;60061;52.080;5.312;2022-09-02T04:51:08;1.3;;;1.2;;
34453;SDS011;60061;52.080;5.312;2022-09-02T04:52:50;2.9;;;1.3;;
34453;SDS011;60061;52.080;5.312;2022-09-02T04:54:26;3.2;;;1.3;;
34453;SDS011;60061;52.080;5.312;2022-09-02T04:56:03;2.0;;;1.3;;
34453;SDS011;60061;52.080;5.312;2022-09-02T04:59:20;7.8;;;2.1;;
34453;SDS011;60061;52.080;5.312;2022-09-02T05:00:56;8.71;;;1.8;;
34453;SDS011;60061;52.080;5.312;2022-09-02T05:02:33;57.8;;;5.8;;
34453;SDS011;60061;52.080;5.312;2022-09-02T05:05:47;3.2;;;1.5;;
34453;SDS011;60061;52.080;5.312;2022-09-02T05:07:34;4.5;;;1.5;;
34453;SDS011;60061;52.080;5.312;2022-09-02T05:09:11;4.7;;;1.6;;
34453;SDS011;60061;52.080;5.312;2022-09-02T05:10:49;2.7;;;1.4;;
34453;SDS011;60061;52.080;5.312;2022-09-02T05:14:04;6.3;;;1.5;;
34453;SDS011;60061;52.080;5.312;2022-09-02T05:15:43;4.41;;;1.4;;
34453;SDS011;60061;52.080;5.312;2022-09-02T05:17:20;3.2;;;1.6;;
34453;SDS011;60061;52.080;5.312;2022-09-02T05:18:57;3.3;;;1.5;;
34453;SDS011;60061;52.080;5.312;2022-09-02T05:22:13;2.1;;;1.4;;
34453;SDS011;60061;52.080;5.312;2022-09-02T05:23:51;7.5;;;1.6;;
34453;SDS011;60061;52.080;5.312;2022-09-02T05:25:27;2.6;;;1.3;;
34453;SDS011;60061;52.080;5.312;2022-09-02T05:28:40;2.1;;;1.3;;
34453;SDS011;60061;52.080;5.312;2022-09-02T05:30:17;4.91;;;1.5;;
34453;SDS011;60061;52.080;5.312;2022-09-02T05:31:53;22.1;;;3.0;;
34453;SDS011;60061;52.080;5.312;2022-09-02T05:35:08;4.41;;;1.6;;
34453;SDS011;60061;52.080;5.312;2022-09-02T05:36:44;2.6;;;1.3;;
34453;SDS011;60061;52.080;5.312;2022-09-02T05:38:21;2.8;;;1.2;;
34453;SDS011;60061;52.080;5.312;2022-09-02T05:39:57;6.6;;;1.7;;
34453;SDS011;60061;52.080;5.312;2022-09-02T05:43:10;3.7;;;1.5;;
34453;SDS011;60061;52.080;5.312;2022-09-02T05:44:47;6.4;;;1.5;;
34453;SDS011;60061;52.080;5.312;2022-09-02T05:46:24;4.2;;;1.4;;
34453;SDS011;60061;52.080;5.312;2022-09-02T05:50:41;3.6;;;1.11;;
34453;SDS011;60061;52.080;5.312;2022-09-02T05:53:53;6.4;;;1.4;;
34453;SDS011;60061;52.080;5.312;2022-09-02T05:55:31;6.3;;;1.5;;
34453;SDS011;60061;52.080;5.312;2022-09-02T05:57:09;2.4;;;1.5;;
34453;SDS011;60061;52.080;5.312;2022-09-02T05:58:49;6.2;;;1.5;;
34453;SDS011;60061;52.080;5.312;2022-09-02T06:02:02;4.7;;;1.4;;
34453;SDS011;60061;52.080;5.312;2022-09-02T06:03:38;4.0;;;1.5;;
34453;SDS011;60061;52.080;5.312;2022-09-02T06:05:16;5.2;;;1.5;;
34453;SDS011;60061;52.080;5.312;2022-09-02T06:08:31;4.2;;;1.4;;
34453;SDS011;60061;52.080;5.312;2022-09-02T06:10:09;6.0;;;1.4;;
34453;SDS011;60061;52.080;5.312;2022-09-02T06:11:48;4.0;;;1.3;;
34453;SDS011;60061;52.080;5.312;2022-09-02T06:13:26;2.4;;;1.3;;
34453;SDS011;60061;52.080;5.312;2022-09-02T06:16:41;3.3;;;1.4;;
34453;SDS011;60061;52.080;5.312;2022-09-02T06:18:18;3.1;;;1.3;;
34453;SDS011;60061;52.080;5.312;2022-09-02T06:19:55;1.9;;;1.2;;
34453;SDS011;60061;52.080;5.312;2022-09-02T06:23:11;3.2;;;1.4;;
34453;SDS011;60061;52.080;5.312;2022-09-02T06:24:48;1.5;;;1.11;;
34453;SDS011;60061;52.080;5.312;2022-09-02T06:26:25;4.41;;;2.8;;
34453;SDS011;60061;52.080;5.312;2022-09-02T06:28:02;3.2;;;1.9;;
34453;SDS011;60061;52.080;5.312;2022-09-02T06:31:17;4.3;;;1.3;;
34453;SDS011;60061;52.080;5.312;2022-09-02T06:32:58;4.7;;;1.6;;
34453;SDS011;60061;52.080;5.312;2022-09-02T06:34:34;2.4;;;1.4;;
34453;SDS011;60061;52.080;5.312;2022-09-02T06:37:50;3.2;;;1.5;;
34453;SDS011;60061;52.080;5.312;2022-09-02T06:39:27;3.5;;;1.6;;
34453;SDS011;60061;52.080;5.312;2022-09-02T06:41:04;3.3;;;1.5;;
34453;SDS011;60061;52.080;5.312;2022-09-02T06:42:41;3.6;;;1.4;;
34453;SDS011;60061;52.080;5.312;2022-09-02T06:45:54;8.1;;;1.8;;
34453;SDS011;60061;52.080;5.312;2022-09-02T06:47:30;4.2;;;1.7;;
34453;SDS011;60061;52.080;5.312;2022-09-02T06:49:07;6.1;;;2.0;;
34453;SDS011;60061;52.080;5.312;2022-09-02T06:52:21;4.41;;;1.6;;
34453;SDS011;60061;52.080;5.312;2022-09-02T06:53:57;1.9;;;1.5;;
34453;SDS011;60061;52.080;5.312;2022-09-02T06:55:34;2.6;;;1.4;;
34453;SDS011;60061;52.080;5.312;2022-09-02T06:58:48;3.8;;;1.6;;
34453;SDS011;60061;52.080;5.312;2022-09-02T07:00:24;4.1;;;1.6;;
34453;SDS011;60061;52.080;5.312;2022-09-02T07:02:00;8.31;;;1.9;;
34453;SDS011;60061;52.080;5.312;2022-09-02T07:06:34;2.1;;;1.4;;
34453;SDS011;60061;52.080;5.312;2022-09-02T07:08:13;3.8;;;1.4;;
34453;SDS011;60061;52.080;5.312;2022-09-02T07:09:50;3.4;;;1.5;;
34453;SDS011;60061;52.080;5.312;2022-09-02T07:13:03;3.3;;;1.4;;
34453;SDS011;60061;52.080;5.312;2022-09-02T07:14:41;2.5;;;1.4;;
34453;SDS011;60061;52.080;5.312;2022-09-02T07:16:18;3.3;;;1.6;;
34453;SDS011;60061;52.080;5.312;2022-09-02T07:19:31;2.5;;;1.5;;
34453;SDS011;60061;52.080;5.312;2022-09-02T07:21:07;2.9;;;1.6;;
34453;SDS011;60061;52.080;5.312;2022-09-02T07:22:44;4.0;;;1.4;;
34453;SDS011;60061;52.080;5.312;2022-09-02T07:25:57;8.71;;;2.0;;
34453;SDS011;60061;52.080;5.312;2022-09-02T07:27:34;4.91;;;1.8;;
34453;SDS011;60061;52.080;5.312;2022-09-02T07:29:11;3.2;;;1.4;;
34453;SDS011;60061;52.080;5.312;2022-09-02T07:30:48;5.5;;;1.8;;
34453;SDS011;60061;52.080;5.312;2022-09-02T07:34:00;4.61;;;2.21;;
34453;SDS011;60061;52.080;5.312;2022-09-02T07:35:37;6.5;;;1.7;;
34453;SDS011;60061;52.080;5.312;2022-09-02T07:37:13;2.9;;;1.5;;
34453;SDS011;60061;52.080;5.312;2022-09-02T07:40:26;4.1;;;1.6;;
34453;SDS011;60061;52.080;5.312;2022-09-02T07:42:03;3.4;;;1.4;;
34453;SDS011;60061;52.080;5.312;2022-09-02T07:43:41;3.8;;;1.4;;
34453;SDS011;60061;52.080;5.312;2022-09-02T07:46:55;3.5;;;1.8;;
34453;SDS011;60061;52.080;5.312;2022-09-02T07:48:32;3.1;;;1.4;;
34453;SDS011;60061;52.080;5.312;2022-09-02T07:50:11;3.6;;;1.6;;
34453;SDS011;60061;52.080;5.312;2022-09-02T07:55:03;2.4;;;1.5;;
34453;SDS011;60061;52.080;5.312;2022-09-02T07:56:42;13.1;;;2.21;;
34453;SDS011;60061;52.080;5.312;2022-09-02T07:58:19;4.8;;;1.7;;
34453;SDS011;60061;52.080;5.312;2022-09-02T08:01:34;3.5;;;1.5;;
34453;SDS011;60061;52.080;5.312;2022-09-02T08:03:11;3.4;;;1.8;;
34453;SDS011;60061;52.080;5.312;2022-09-02T08:04:49;3.4;;;1.6;;
34453;SDS011;60061;52.080;5.312;2022-09-02T08:06:28;4.61;;;1.7;;
34453;SDS011;60061;52.080;5.312;2022-09-02T08:09:42;4.2;;;1.8;;
34453;SDS011;60061;52.080;5.312;2022-09-02T08:11:19;2.5;;;1.4;;
34453;SDS011;60061;52.080;5.312;2022-09-02T08:12:55;4.2;;;1.7;;
34453;SDS011;60061;52.080;5.312;2022-09-02T08:16:08;6.2;;;1.8;;
34453;SDS011;60061;52.080;5.312;2022-09-02T08:17:44;4.7;;;1.6;;
34453;SDS011;60061;52.080;5.312;2022-09-02T08:19:21;2.7;;;1.6;;
34453;SDS011;60061;52.080;5.312;2022-09-02T08:20:58;3.0;;;1.9;;
34453;SDS011;60061;52.080;5.312;2022-09-02T08:24:12;5.3;;;1.8;;
34453;SDS011;60061;52.080;5.312;2022-09-02T08:25:48;5.8;;;1.9;;
34453;SDS011;60061;52.080;5.312;2022-09-02T08:27:25;5.8;;;1.9;;
34453;SDS011;60061;52.080;5.312;2022-09-02T08:30:40;4.0;;;1.8;;
34453;SDS011;60061;52.080;5.312;2022-09-02T08:32:16;5.7;;;2.0;;
34453;SDS011;60061;52.080;5.312;2022-09-02T08:33:53;3.6;;;2.1;;
34453;SDS011;60061;52.080;5.312;2022-09-02T08:37:06;9.1;;;2.0;;
34453;SDS011;60061;52.080;5.312;2022-09-02T08:38:42;3.0;;;1.5;;
34453;SDS011;60061;52.080;5.312;2022-09-02T08:40:20;4.8;;;2.0;;
34453;SDS011;60061;52.080;5.312;2022-09-02T08:42:01;2.21;;;1.6;;
34453;SDS011;60061;52.080;5.312;2022-09-02T08:45:22;5.9;;;2.0;;
34453;SDS011;60061;52.080;5.312;2022-09-02T08:47:04;4.2;;;1.8;;
34453;SDS011;60061;52.080;5.312;2022-09-02T08:48:45;4.61;;;2.1;;
34453;SDS011;60061;52.080;5.312;2022-09-02T08:50:26;2.1;;;1.7;;
34453;SDS011;60061;52.080;5.312;2022-09-02T08:53:43;3.6;;;1.9;;
34453;SDS011;60061;52.080;5.312;2022-09-02T08:55:27;4.0;;;2.4;;
34453;SDS011;60061;52.080;5.312;2022-09-02T08:57:10;3.1;;;2.21;;
34453;SDS011;60061;52.080;5.312;2022-09-02T08:58:48;3.0;;;2.0;;
34453;SDS011;60061;52.080;5.312;2022-09-02T09:02:11;3.8;;;2.0;;
34453;SDS011;60061;52.080;5.312;2022-09-02T09:04:10;7.2;;;2.1;;
34453;SDS011;60061;52.080;5.312;2022-09-02T09:05:54;5.8;;;2.4;;
34453;SDS011;60061;52.080;5.312;2022-09-02T09:07:42;4.41;;;2.21;;
34453;SDS011;60061;52.080;5.312;2022-09-02T09:09:34;6.4;;;2.8;;
34453;SDS011;60061;52.080;5.312;2022-09-02T09:11:22;7.3;;;2.4;;
34453;SDS011;60061;52.080;5.312;2022-09-02T09:15:12;5.0;;;2.21;;
34453;SDS011;60061;52.080;5.312;2022-09-02T09:16:57;4.91;;;2.1;;
34453;SDS011;60061;52.080;5.312;2022-09-02T09:18:37;7.0;;;2.6;;
34453;SDS011;60061;52.080;5.312;2022-09-02T09:20:16;4.91;;;2.31;;
34453;SDS011;60061;52.080;5.312;2022-09-02T09:21:54;3.0;;;2.31;;
34453;SDS011;60061;52.080;5.312;2022-09-02T09:25:14;5.2;;;2.21;;
34453;SDS011;60061;52.080;5.312;2022-09-02T09:26:53;6.5;;;2.6;;
34453;SDS011;60061;52.080;5.312;2022-09-02T09:28:30;8.71;;;2.4;;
34453;SDS011;60061;52.080;5.312;2022-09-02T09:30:08;3.8;;;2.0;;
34453;SDS011;60061;52.080;5.312;2022-09-02T09:33:34;4.1;;;2.4;;
34453;SDS011;60061;52.080;5.312;2022-09-02T09:35:11;5.2;;;2.5;;
34453;SDS011;60061;52.080;5.312;2022-09-02T09:36:51;9.21;;;2.9;;
34453;SDS011;60061;52.080;5.312;2022-09-02T09:38:30;4.8;;;2.9;;
34453;SDS011;60061;52.080;5.312;2022-09-02T09:42:08;5.2;;;2.8;;
34453;SDS011;60061;52.080;5.312;2022-09-02T09:43:49;6.2;;;2.8;;
34453;SDS011;60061;52.080;5.312;2022-09-02T09:45:26;5.5;;;2.5;;
34453;SDS011;60061;52.080;5.312;2022-09-02T09:47:07;6.3;;;2.6;;
34453;SDS011;60061;52.080;5.312;2022-09-02T09:50:25;4.0;;;2.5;;
34453;SDS011;60061;52.080;5.312;2022-09-02T09:52:01;7.3;;;2.9;;
34453;SDS011;60061;52.080;5.312;2022-09-02T09:53:39;6.0;;;2.9;;
34453;SDS011;60061;52.080;5.312;2022-09-02T09:55:16;4.41;;;2.6;;
34453;SDS011;60061;52.080;5.312;2022-09-02T09:58:49;8.71;;;2.6;;
34453;SDS011;60061;52.080;5.312;2022-09-02T10:00:26;4.91;;;2.6;;
34453;SDS011;60061;52.080;5.312;2022-09-02T10:02:09;8.2;;;3.1;;
34453;SDS011;60061;52.080;5.312;2022-09-02T10:03:55;6.5;;;2.5;;
34453;SDS011;60061;52.080;5.312;2022-09-02T10:05:35;4.91;;;2.7;;
34453;SDS011;60061;52.080;5.312;2022-09-02T10:09:29;5.4;;;2.7;;
34453;SDS011;60061;52.080;5.312;2022-09-02T10:11:17;6.5;;;2.8;;
34453;SDS011;60061;52.080;5.312;2022-09-02T10:12:57;4.91;;;2.8;;
34453;SDS011;60061;52.080;5.312;2022-09-02T10:14:52;4.41;;;2.6;;
34453;SDS011;60061;52.080;5.312;2022-09-02T10:16:32;4.41;;;2.6;;
34453;SDS011;60061;52.080;5.312;2022-09-02T10:18:22;5.2;;;2.8;;
34453;SDS011;60061;52.080;5.312;2022-09-02T10:21:59;7.1;;;2.5;;
34453;SDS011;60061;52.080;5.312;2022-09-02T10:24:16;4.8;;;2.6;;
34453;SDS011;60061;52.080;5.312;2022-09-02T10:26:19;5.11;;;2.6;;
34453;SDS011;60061;52.080;5.312;2022-09-02T10:28:05;6.0;;;2.7;;
34453;SDS011;60061;52.080;5.312;2022-09-02T10:29:58;8.4;;;3.0;;
34453;SDS011;60061;52.080;5.312;2022-09-02T10:31:57;5.5;;;2.8;;
34453;SDS011;60061;52.080;5.312;2022-09-02T10:33:53;7.4;;;2.7;;
34453;SDS011;60061;52.080;5.312;2022-09-02T10:35:44;13.7;;;3.5;;
34453;SDS011;60061;52.080;5.312;2022-09-02T10:37:23;16.0;;;3.6;;
34453;SDS011;60061;52.080;5.312;2022-09-02T10:39:06;4.8;;;2.8;;
34453;SDS011;60061;52.080;5.312;2022-09-02T10:42:43;6.2;;;2.5;;
34453;SDS011;60061;52.080;5.312;2022-09-02T10:44:38;4.61;;;2.6;;
34453;SDS011;60061;52.080;5.312;2022-09-02T10:46:25;5.0;;;2.8;;
34453;SDS011;60061;52.080;5.312;2022-09-02T10:48:16;3.7;;;2.8;;
34453;SDS011;60061;52.080;5.312;2022-09-02T10:50:09;8.0;;;2.8;;
34453;SDS011;60061;52.080;5.312;2022-09-02T10:51:54;6.2;;;3.1;;
34453;SDS011;60061;52.080;5.312;2022-09-02T10:53:47;5.4;;;2.9;;
34453;SDS011;60061;52.080;5.312;2022-09-02T10:57:31;4.3;;;3.0;;
34453;SDS011;60061;52.080;5.312;2022-09-02T10:59:13;8.1;;;2.9;;
34453;SDS011;60061;52.080;5.312;2022-09-02T11:00:56;4.91;;;2.7;;
34453;SDS011;60061;52.080;5.312;2022-09-02T11:02:34;4.3;;;2.5;;
34453;SDS011;60061;52.080;5.312;2022-09-02T11:04:17;6.0;;;2.5;;
34453;SDS011;60061;52.080;5.312;2022-09-02T11:07:46;4.1;;;2.4;;
34453;SDS011;60061;52.080;5.312;2022-09-02T11:09:28;5.6;;;2.8;;
34453;SDS011;60061;52.080;5.312;2022-09-02T11:11:10;7.0;;;2.9;;
34453;SDS011;60061;52.080;5.312;2022-09-02T11:12:51;6.4;;;2.5;;
34453;SDS011;60061;52.080;5.312;2022-09-02T11:16:26;4.1;;;2.7;;
34453;SDS011;60061;52.080;5.312;2022-09-02T11:18:14;7.9;;;3.2;;
34453;SDS011;60061;52.080;5.312;2022-09-02T11:19:58;7.2;;;2.7;;
34453;SDS011;60061;52.080;5.312;2022-09-02T11:21:47;6.3;;;2.5;;
34453;SDS011;60061;52.080;5.312;2022-09-02T11:23:33;6.3;;;2.6;;
34453;SDS011;60061;52.080;5.312;2022-09-02T11:25:18;7.9;;;2.6;;
34453;SDS011;60061;52.080;5.312;2022-09-02T11:28:45;5.0;;;2.9;;
34453;SDS011;60061;52.080;5.312;2022-09-02T11:30:30;4.7;;;2.6;;
34453;SDS011;60061;52.080;5.312;2022-09-02T11:32:18;4.2;;;2.5;;
34453;SDS011;60061;52.080;5.312;2022-09-02T11:34:04;5.11;;;2.4;;
34453;SDS011;60061;52.080;5.312;2022-09-02T11:35:53;4.8;;;2.7;;
34453;SDS011;60061;52.080;5.312;2022-09-02T11:39:17;4.61;;;2.7;;
34453;SDS011;60061;52.080;5.312;2022-09-02T11:41:08;5.9;;;2.21;;
34453;SDS011;60061;52.080;5.312;2022-09-02T11:43:02;5.5;;;2.9;;
34453;SDS011;60061;52.080;5.312;2022-09-02T11:45:00;3.9;;;2.8;;
34453;SDS011;60061;52.080;5.312;2022-09-02T11:51:04;5.0;;;2.4;;
34453;SDS011;60061;52.080;5.312;2022-09-02T11:53:10;29.4;;;4.2;;
34453;SDS011;60061;52.080;5.312;2022-09-02T11:54:59;9.9;;;2.6;;
34453;SDS011;60061;52.080;5.312;2022-09-02T11:56:43;8.31;;;3.2;;
34453;SDS011;60061;52.080;5.312;2022-09-02T12:00:26;6.4;;;2.7;;
34453;SDS011;60061;52.080;5.312;2022-09-02T12:02:05;5.11;;;2.6;;
34453;SDS011;60061;52.080;5.312;2022-09-02T12:03:42;2.8;;;2.1;;
34453;SDS011;60061;52.080;5.312;2022-09-02T12:06:25;4.0;;;2.6;;
34453;SDS011;60061;52.080;5.312;2022-09-02T12:08:03;7.2;;;2.31;;
34453;SDS011;60061;52.080;5.312;2022-09-02T12:09:45;11.9;;;2.8;;
34453;SDS011;60061;52.080;5.312;2022-09-02T12:11:56;4.8;;;2.6;;
34453;SDS011;60061;52.080;5.312;2022-09-02T12:13:34;4.61;;;2.4;;
34453;SDS011;60061;52.080;5.312;2022-09-02T12:17:00;5.7;;;2.4;;
34453;SDS011;60061;52.080;5.312;2022-09-02T12:18:41;3.6;;;2.31;;
34453;SDS011;60061;52.080;5.312;2022-09-02T12:22:57;7.5;;;2.7;;
34453;SDS011;60061;52.080;5.312;2022-09-02T12:24:47;3.4;;;2.5;;
34453;SDS011;60061;52.080;5.312;2022-09-02T12:26:27;6.4;;;2.21;;
34453;SDS011;60061;52.080;5.312;2022-09-02T12:28:14;3.1;;;2.21;;
34453;SDS011;60061;52.080;5.312;2022-09-02T12:29:58;6.0;;;2.31;;
34453;SDS011;60061;52.080;5.312;2022-09-02T12:33:23;4.61;;;2.4;;
34453;SDS011;60061;52.080;5.312;2022-09-02T12:35:07;3.5;;;2.31;;
34453;SDS011;60061;52.080;5.312;2022-09-02T12:36:47;4.1;;;2.4;;
34453;SDS011;60061;52.080;5.312;2022-09-02T12:38:28;4.2;;;2.6;;
34453;SDS011;60061;52.080;5.312;2022-09-02T12:41:55;2.9;;;2.31;;
34453;SDS011;60061;52.080;5.312;2022-09-02T12:43:47;2.5;;;2.31;;
34453;SDS011;60061;52.080;5.312;2022-09-02T12:45:31;3.5;;;2.21;;
34453;SDS011;60061;52.080;5.312;2022-09-02T12:47:21;3.3;;;2.4;;
34453;SDS011;60061;52.080;5.312;2022-09-02T12:49:08;4.1;;;2.4;;
34453;SDS011;60061;52.080;5.312;2022-09-02T12:51:00;5.11;;;2.4;;
34453;SDS011;60061;52.080;5.312;2022-09-02T12:54:23;3.2;;;2.31;;
34453;SDS011;60061;52.080;5.312;2022-09-02T12:56:17;2.6;;;2.4;;
34453;SDS011;60061;52.080;5.312;2022-09-02T12:58:04;3.2;;;2.31;;
34453;SDS011;60061;52.080;5.312;2022-09-02T12:59:44;5.5;;;2.4;;
34453;SDS011;60061;52.080;5.312;2022-09-02T13:01:24;6.3;;;2.21;;
34453;SDS011;60061;52.080;5.312;2022-09-02T13:05:11;3.5;;;2.4;;
34453;SDS011;60061;52.080;5.312;2022-09-02T13:10:34;5.3;;;2.5;;
34453;SDS011;60061;52.080;5.312;2022-09-02T13:14:44;6.7;;;2.6;;
34453;SDS011;60061;52.080;5.312;2022-09-02T13:16:43;6.9;;;2.5;;